MDT,Max TemperatureF,Mean TemperatureF,Min TemperatureF,Max Dew PointF,MeanDew PointF,Min DewpointF,Max Humidity, Mean Humidity, Min Humidity, Max Sea Level PressureIn, Mean Sea Level PressureIn, Min Sea Level PressureIn, Max VisibilityMiles, Mean VisibilityMiles, Min VisibilityMiles, Max Wind SpeedMPH, Mean Wind SpeedMPH, Max Gust SpeedMPH,PrecipitationIn, CloudCover, Events, WindDirDegrees
2013-3-1,45,33,20,28,23,15,81,63,45,30.37,30.31,30.26,10,10,10,24,10,31,0.00,4,,309
2013-3-2,58,47,35,31,29,27,76,55,33,30.27,30.17,29.99,10,10,10,25,15,30,0.00,1,,291
2013-3-3,65,48,31,31,28,26,82,53,24,29.96,29.70,29.58,10,10,10,31,14,37,0.00,1,,280
2013-3-4,41,30,19,27,14,6,81,55,29,30.29,29.95,29.69,10,10,10,36,23,46,0.00,2,,337
2013-3-5,42,28,14,14,9,5,73,49,25,30.42,30.34,30.26,10,10,10,29,11,36,0.00,0,,277
2013-3-6,51,36,20,25,20,14,88,61,33,30.26,30.06,29.91,10,10,10,24,12,29,0.00,0,,164
2013-3-7,63,41,19,31,24,16,92,56,20,30.03,29.97,29.91,10,10,10,15,5,17,0.00,0,,149
2013-3-8,51,35,19,31,27,17,96,70,44,30.03,29.90,29.70,10,9,6,18,7,22,0.00,0,,49
2013-3-9,34,29,24,30,26,15,92,75,58,30.12,29.77,29.62,10,5,0,39,22,52,0.03,6,Fog-Snow,354
2013-3-10,39,28,17,20,17,12,84,60,35,30.21,30.12,30.04,10,8,2,29,14,33,T,5,Snow,348
2013-3-11,50,34,18,34,25,14,84,62,40,30.16,30.02,29.94,10,10,4,31,14,36,T,5,Rain-Snow,320
2013-3-12,44,34,23,24,18,12,81,56,31,30.35,30.29,30.16,10,10,10,26,13,31,0.00,3,,307
2013-3-13,66,45,23,31,26,21,88,55,22,30.29,30.20,30.12,10,10,10,23,12,26,0.00,0,,275
2013-3-14,73,55,37,30,26,12,64,40,16,30.23,30.11,29.85,10,10,10,20,11,25,0.00,0,,287
2013-3-15,75,57,38,28,24,15,53,32,11,29.98,29.84,29.73,10,10,10,31,12,40,0.00,0,,312
2013-3-16,51,39,26,31,28,23,92,66,43,30.02,29.94,29.89,10,10,8,28,10,32,T,1,,153
2013-3-17,55,39,22,29,20,7,92,57,22,29.86,29.69,29.50,10,6,0,40,18,53,T,5,Rain,238
2013-3-18,46,32,18,20,12,7,88,55,22,30.03,29.94,29.87,10,10,10,24,11,32,0.00,3,,323
2013-3-19,44,30,15,21,15,9,88,64,38,30.33,30.16,30.00,10,10,6,24,11,41,0.00,4,Snow,29
2013-3-20,56,32,8,24,16,5,96,59,22,30.38,30.13,29.77,10,10,10,26,13,32,0.00,3,,198
2013-3-21,45,34,22,39,28,19,93,71,48,29.87,29.69,29.59,10,9,2,24,12,29,0.12,5,Rain,209
2013-3-22,47,35,23,28,22,9,88,55,22,29.96,29.87,29.79,10,8,1,29,11,35,T,5,Snow,331
2013-3-23,28,17,5,25,17,2,92,74,55,30.36,30.06,29.89,10,4,0,25,15,33,0.01,7,Fog-Snow,13
2013-3-24,31,16,0,15,7,-4,87,65,42,30.37,30.29,30.21,10,10,10,32,14,38,T,3,,321
2013-3-25,36,20,4,15,8,1,88,59,29,30.44,30.39,30.34,10,10,8,21,9,28,0.00,0,,307
2013-3-26,51,33,14,31,17,7,80,51,21,30.32,30.13,30.00,10,10,10,20,10,35,T,2,,213
2013-3-27,58,41,23,32,29,25,100,68,35,30.16,30.08,30.01,10,10,8,23,7,26,0.00,4,,197
2013-3-28,68,49,29,32,25,18,82,49,15,30.10,30.05,29.98,10,10,10,22,10,28,0.00,2,,274
2013-3-29,69,47,25,35,28,20,81,52,22,30.10,30.03,29.97,10,10,10,26,9,35,T,2,Rain,288
2013-3-30,63,48,32,34,31,29,85,59,32,30.17,30.06,29.96,10,10,10,29,11,33,0.00,2,,326
2013-3-31,68,45,21,36,24,16,96,55,14,30.15,30.04,29.89,10,10,10,28,15,40,0.00,0,,301